Time;durP1;ratioP1;P1;durP2;ratioP2;P2;SDS_P1;SDS_P2;PMS_P1;PMS_P2;Temp;Humidity;BMP_temperature;BMP_pressure;BME280_temperature;BME280_humidity;BME280_pressure;Samples;Min_cycle;Max_cycle;Signal;HPM_P1;HPM_P2
2021/05/04 00:00:41;;;;;;;4.00;2.50;;;11.90;99.90;;;;;;5033353;28;20041;-76
2021/05/04 00:03:07;;;;;;;8.70;2.92;;;11.90;99.90;;;;;;5031841;28;20144;-76
2021/05/04 00:05:33;;;;;;;5.65;2.65;;;11.90;99.90;;;;;;5033075;28;20072;-76
2021/05/04 00:07:58;;;;;;;8.45;2.78;;;11.80;99.90;;;;;;5031741;28;20354;-76
2021/05/04 00:10:24;;;;;;;3.78;2.40;;;11.80;99.90;;;;;;5032286;28;20038;-77
2021/05/04 00:12:50;;;;;;;4.38;2.75;;;11.70;99.90;;;;;;5032332;28;20047;-76
2021/05/04 00:15:15;;;;;;;4.22;2.72;;;11.70;99.90;;;;;;5032384;28;20035;-77
2021/05/04 00:17:41;;;;;;;3.65;2.72;;;11.70;99.90;;;;;;5048113;28;20488;-76
2021/05/04 00:20:08;;;;;;;3.38;2.47;;;11.70;99.90;;;;;;5032791;28;20111;-76
2021/05/04 00:22:33;;;;;;;3.40;2.28;;;11.60;99.90;;;;;;5032514;28;20371;-76
2021/05/04 00:24:59;;;;;;;4.13;2.97;;;11.60;99.90;;;;;;5032541;28;20044;-77
2021/05/04 00:27:25;;;;;;;7.55;2.30;;;11.60;99.90;;;;;;5032692;28;20029;-76
2021/05/04 00:29:50;;;;;;;4.82;2.90;;;11.60;99.90;;;;;;5031298;28;20045;-77
2021/05/04 00:32:16;;;;;;;6.10;2.72;;;11.60;99.90;;;;;;5032633;28;20025;-76
2021/05/04 00:34:42;;;;;;;8.18;2.78;;;11.60;99.90;;;;;;5032147;28;20469;-76
2021/05/04 00:37:07;;;;;;;3.33;2.30;;;11.60;99.90;;;;;;5031674;28;20076;-77
2021/05/04 00:39:37;;;;;;;4.88;2.72;;;11.60;99.90;;;;;;5032796;28;20037;-76
2021/05/04 00:42:03;;;;;;;5.93;2.38;;;11.60;99.90;;;;;;5032606;28;20037;-77
2021/05/04 00:44:29;;;;;;;7.15;4.75;;;11.50;99.90;;;;;;5031122;28;20037;-76
2021/05/04 00:46:55;;;;;;;3.72;2.67;;;11.50;99.90;;;;;;5032486;28;20036;-75
2021/05/04 00:49:21;;;;;;;8.75;2.25;;;11.40;99.90;;;;;;5031596;28;20033;-76
2021/05/04 00:51:50;;;;;;;3.63;2.75;;;11.40;99.90;;;;;;5031510;28;20544;-76
2021/05/04 00:54:17;;;;;;;4.68;2.78;;;11.30;99.90;;;;;;5030985;28;20474;-76
2021/05/04 00:56:43;;;;;;;2.55;2.30;;;11.30;99.90;;;;;;5032426;28;20045;-76
2021/05/04 00:59:11;;;;;;;9.15;2.83;;;11.30;99.90;;;;;;5032257;28;20104;-76
2021/05/04 01:01:38;;;;;;;13.15;2.80;;;11.30;99.90;;;;;;5032163;28;20169;-76
2021/05/04 01:04:06;;;;;;;11.07;3.20;;;11.30;99.90;;;;;;5030788;28;20171;-76
2021/05/04 01:06:32;;;;;;;7.65;2.38;;;11.30;99.90;;;;;;5032083;28;20033;-76
2021/05/04 01:08:57;;;;;;;6.97;2.30;;;11.30;99.90;;;;;;5031674;28;20401;-76
2021/05/04 01:11:23;;;;;;;3.88;2.75;;;11.20;99.90;;;;;;5031738;28;20037;-76
2021/05/04 01:13:51;;;;;;;5.13;2.55;;;11.20;99.90;;;;;;5031950;28;20036;-76
2021/05/04 01:16:17;;;;;;;3.92;2.65;;;11.20;99.90;;;;;;5032028;28;20120;-76
2021/05/04 01:18:42;;;;;;;3.65;2.42;;;11.10;99.90;;;;;;5031384;28;20030;-76
2021/05/04 01:21:08;;;;;;;4.72;2.60;;;11.10;99.90;;;;;;5031223;28;20040;-76
2021/05/04 01:23:35;;;;;;;4.53;2.47;;;11.10;99.90;;;;;;5031616;28;20381;-75
2021/05/04 01:26:02;;;;;;;6.60;3.10;;;11.10;99.90;;;;;;5031587;28;20030;-76
2021/05/04 01:28:28;;;;;;;3.10;2.30;;;11.10;99.90;;;;;;5031950;28;20064;-76
2021/05/04 01:30:53;;;;;;;3.55;2.45;;;11.00;99.90;;;;;;5031843;28;20470;-76
2021/05/04 01:33:19;;;;;;;8.23;2.33;;;11.00;99.90;;;;;;5031688;28;20037;-76
2021/05/04 01:35:45;;;;;;;4.13;2.55;;;11.00;99.90;;;;;;5031508;28;20049;-76
2021/05/04 01:38:10;;;;;;;6.22;2.67;;;11.00;99.90;;;;;;5031699;28;20033;-76
2021/05/04 01:40:36;;;;;;;3.97;2.47;;;10.90;99.90;;;;;;5031399;28;20034;-76
2021/05/04 01:43:02;;;;;;;3.17;2.58;;;10.90;99.90;;;;;;5031645;28;20171;-76
2021/05/04 01:45:28;;;;;;;5.68;2.65;;;10.90;99.90;;;;;;5031417;28;20044;-76
2021/05/04 01:47:53;;;;;;;3.72;2.38;;;10.90;99.90;;;;;;5031616;28;20395;-76
2021/05/04 01:50:19;;;;;;;4.00;2.50;;;10.90;99.90;;;;;;5031768;28;20038;-76
2021/05/04 01:52:45;;;;;;;3.95;2.67;;;10.90;99.90;;;;;;5031470;28;20033;-76
2021/05/04 01:55:11;;;;;;;3.05;2.53;;;10.90;99.90;;;;;;5031642;28;20042;-76
2021/05/04 01:57:37;;;;;;;4.72;2.13;;;10.80;99.90;;;;;;5029659;28;20125;-76
2021/05/04 02:00:08;;;;;;;8.20;2.67;;;10.80;99.90;;;;;;5031646;28;20394;-76
2021/05/04 02:02:35;;;;;;;6.70;2.83;;;10.80;99.90;;;;;;5031429;28;20034;-76
2021/05/04 02:05:01;;;;;;;4.25;2.38;;;10.70;99.90;;;;;;5030839;28;20029;-76
2021/05/04 02:07:27;;;;;;;2.58;2.38;;;10.70;99.90;;;;;;5030763;28;20033;-75
2021/05/04 02:09:53;;;;;;;6.88;2.80;;;10.70;99.90;;;;;;5031317;28;20045;-76
2021/05/04 02:12:19;;;;;;;4.85;2.40;;;10.70;99.90;;;;;;5046408;28;20041;-76
2021/05/04 02:14:44;;;;;;;7.85;4.28;;;10.70;99.90;;;;;;5030898;28;20121;-75
2021/05/04 02:17:10;;;;;;;6.55;2.60;;;10.70;99.90;;;;;;5031047;28;20033;-76
2021/05/04 02:19:39;;;;;;;3.78;2.30;;;10.70;99.90;;;;;;5031246;28;20037;-75
2021/05/04 02:22:05;;;;;;;5.60;2.17;;;10.70;99.90;;;;;;5029853;28;20393;-75
2021/05/04 02:24:31;;;;;;;14.00;3.50;;;10.70;99.90;;;;;;5031261;28;20448;-75
2021/05/04 02:26:57;;;;;;;6.75;2.72;;;10.70;99.90;;;;;;5031416;28;20038;-75
2021/05/04 02:29:23;;;;;;;5.55;2.45;;;10.60;99.90;;;;;;5031194;28;20091;-75
2021/05/04 02:31:48;;;;;;;6.00;2.15;;;10.70;99.90;;;;;;5047174;28;20034;-75
2021/05/04 02:34:14;;;;;;;4.28;2.40;;;10.70;99.90;;;;;;5050115;28;20034;-75
2021/05/04 02:36:40;;;;;;;5.95;2.80;;;10.70;99.90;;;;;;5036410;28;20037;-75
2021/05/04 02:39:07;;;;;;;5.82;2.45;;;10.70;99.90;;;;;;5034853;28;20388;-76
2021/05/04 02:41:34;;;;;;;4.32;3.15;;;10.70;99.90;;;;;;5034804;28;20026;-75
2021/05/04 02:44:00;;;;;;;8.93;3.13;;;10.70;99.90;;;;;;5034634;28;20041;-75
2021/05/04 02:46:29;;;;;;;10.25;2.38;;;10.70;99.90;;;;;;5034456;28;20120;-75
2021/05/04 02:48:56;;;;;;;4.50;2.10;;;10.80;99.90;;;;;;5034555;28;20446;-74
2021/05/04 02:51:22;;;;;;;3.47;2.55;;;10.70;99.90;;;;;;5034262;28;20036;-75
2021/05/04 02:53:48;;;;;;;12.77;2.47;;;10.70;99.90;;;;;;5035037;28;20033;-75
2021/05/04 02:56:14;;;;;;;4.80;2.63;;;10.80;99.90;;;;;;5034769;28;20036;-74
2021/05/04 02:58:40;;;;;;;3.53;2.42;;;10.80;99.90;;;;;;5034280;28;20413;-75
2021/05/04 03:01:06;;;;;;;6.13;2.80;;;10.80;99.90;;;;;;5034317;28;20093;-75
2021/05/04 03:03:35;;;;;;;5.05;2.58;;;10.80;99.90;;;;;;5034074;28;20092;-75
2021/05/04 03:06:02;;;;;;;4.57;2.40;;;10.80;99.90;;;;;;5032835;28;20041;-75
2021/05/04 03:08:28;;;;;;;4.70;2.58;;;10.80;99.90;;;;;;5034122;28;20073;-75
2021/05/04 03:10:54;;;;;;;3.53;2.30;;;10.80;99.90;;;;;;5034163;28;20029;-75
2021/05/04 03:13:24;;;;;;;5.35;2.45;;;10.80;99.90;;;;;;5033992;28;20048;-75
2021/05/04 03:15:51;;;;;;;9.10;2.88;;;10.80;99.90;;;;;;5048940;28;20033;-75
2021/05/04 03:18:16;;;;;;;12.68;3.03;;;10.80;99.90;;;;;;5033742;28;20466;-75
2021/05/04 03:20:43;;;;;;;8.77;3.00;;;10.80;99.90;;;;;;5033760;28;20057;-75
2021/05/04 03:23:08;;;;;;;5.55;2.78;;;10.70;99.90;;;;;;5033826;28;20478;-75
2021/05/04 03:25:34;;;;;;;7.90;2.40;;;10.70;99.90;;;;;;5033897;28;20037;-75
2021/05/04 03:28:00;;;;;;;11.90;2.70;;;10.60;99.90;;;;;;5034027;28;20029;-75
2021/05/04 03:30:26;;;;;;;6.15;2.85;;;10.60;99.90;;;;;;5033790;28;20112;-75
2021/05/04 03:32:52;;;;;;;9.90;2.78;;;10.70;99.90;;;;;;5033733;28;20100;-74
2021/05/04 03:35:19;;;;;;;4.43;2.40;;;10.60;99.90;;;;;;5048976;28;20038;-75
2021/05/04 03:37:45;;;;;;;5.18;2.75;;;10.70;99.90;;;;;;5048759;28;20394;-76
2021/05/04 03:40:12;;;;;;;4.40;2.15;;;10.60;99.90;;;;;;5033542;28;20176;-75
2021/05/04 03:42:37;;;;;;;3.83;2.20;;;10.70;99.90;;;;;;5033175;28;20850;-75
2021/05/04 03:45:05;;;;;;;5.65;2.30;;;10.60;99.90;;;;;;5032958;28;20117;-74
2021/05/04 03:47:31;;;;;;;5.20;2.35;;;10.60;99.90;;;;;;5033727;28;20381;-75
2021/05/04 03:49:56;;;;;;;7.15;2.78;;;10.70;99.90;;;;;;5033183;28;20113;-75
2021/05/04 03:52:22;;;;;;;3.83;2.70;;;10.70;99.90;;;;;;5033398;28;20026;-75
2021/05/04 03:54:48;;;;;;;4.05;2.70;;;10.70;99.90;;;;;;5033045;28;20064;-75
2021/05/04 03:57:13;;;;;;;7.03;2.80;;;10.70;99.90;;;;;;5032526;28;20371;-75
2021/05/04 03:59:40;;;;;;;9.35;3.10;;;10.70;99.90;;;;;;5033442;28;20095;-75
2021/05/04 04:02:05;;;;;;;4.25;2.85;;;10.70;99.90;;;;;;5033276;28;20033;-75
2021/05/04 04:04:31;;;;;;;6.38;2.88;;;10.70;99.90;;;;;;5033367;28;20087;-76
2021/05/04 04:06:57;;;;;;;5.20;3.33;;;10.70;99.90;;;;;;5032964;28;20400;-75
2021/05/04 04:09:23;;;;;;;9.60;3.10;;;10.70;99.90;;;;;;5033056;28;20038;-74
2021/05/04 04:11:48;;;;;;;5.25;3.20;;;10.70;99.90;;;;;;5032986;28;20049;-75
2021/05/04 04:14:14;;;;;;;7.10;3.80;;;10.80;99.90;;;;;;5032829;28;20021;-75
2021/05/04 04:16:40;;;;;;;8.02;3.50;;;10.90;99.90;;;;;;5048102;28;20068;-75
2021/05/04 04:19:08;;;;;;;9.43;2.97;;;10.90;99.90;;;;;;5032663;28;20033;-75
2021/05/04 04:21:34;;;;;;;4.57;2.55;;;11.00;99.90;;;;;;5033030;28;20134;-75
2021/05/04 04:24:00;;;;;;;9.90;3.00;;;11.00;99.90;;;;;;5032717;28;20065;-75
2021/05/04 04:26:26;;;;;;;5.40;2.85;;;11.00;99.90;;;;;;5032580;28;20071;-75
2021/05/04 04:28:51;;;;;;;6.25;2.75;;;11.10;99.90;;;;;;5032572;28;20033;-75
2021/05/04 04:31:17;;;;;;;4.50;2.40;;;11.20;99.90;;;;;;5048067;28;20029;-76
2021/05/04 04:33:42;;;;;;;8.50;3.00;;;11.20;99.90;;;;;;5032825;28;20030;-76
2021/05/04 04:36:08;;;;;;;6.50;2.90;;;11.30;99.90;;;;;;5032297;28;20036;-76
2021/05/04 04:38:34;;;;;;;3.65;2.83;;;11.30;99.90;;;;;;5032519;28;20029;-75
2021/05/04 04:41:00;;;;;;;4.43;2.72;;;11.30;99.90;;;;;;5031361;28;20115;-75
2021/05/04 04:43:26;;;;;;;8.15;3.30;;;11.50;99.90;;;;;;5032604;28;20036;-76
2021/05/04 04:45:51;;;;;;;6.90;3.10;;;11.70;99.90;;;;;;5032202;28;20037;-76
2021/05/04 04:48:17;;;;;;;6.18;3.08;;;12.00;99.90;;;;;;5032245;28;20037;-76
2021/05/04 04:50:43;;;;;;;7.40;2.85;;;12.60;99.90;;;;;;5032451;28;20458;-76
2021/05/04 04:53:08;;;;;;;12.55;2.90;;;13.20;99.90;;;;;;5031764;28;20053;-76
2021/05/04 04:55:34;;;;;;;7.03;2.72;;;13.80;99.90;;;;;;5031586;28;20025;-76
2021/05/04 04:58:00;;;;;;;7.15;2.30;;;14.40;99.90;;;;;;5032053;28;20065;-75
2021/05/04 05:00:26;;;;;;;3.22;2.10;;;15.10;99.90;;;;;;5031462;28;20036;-75
2021/05/04 05:02:51;;;;;;;7.88;2.55;;;15.40;99.90;;;;;;5031327;28;20029;-75
2021/05/04 05:05:17;;;;;;;7.93;2.28;;;15.80;99.90;;;;;;5031639;28;20079;-76
2021/05/04 05:07:43;;;;;;;10.13;2.67;;;16.20;99.90;;;;;;5031826;28;20025;-75
2021/05/04 05:10:10;;;;;;;11.63;2.20;;;16.40;99.90;;;;;;5031907;28;20045;-76
2021/05/04 05:12:35;;;;;;;4.53;1.88;;;16.50;99.90;;;;;;5032193;28;20048;-76
2021/05/04 05:15:03;;;;;;;3.53;1.98;;;16.70;99.90;;;;;;5031956;28;20033;-75
2021/05/04 05:17:29;;;;;;;3.78;1.70;;;17.00;99.90;;;;;;5031864;28;20028;-77
2021/05/04 05:19:56;;;;;;;5.75;2.10;;;17.30;99.90;;;;;;5030761;28;20088;-76
2021/05/04 05:22:22;;;;;;;10.05;1.77;;;17.60;99.90;;;;;;5031781;28;20028;-76
2021/05/04 05:24:47;;;;;;;5.07;2.17;;;17.80;99.90;;;;;;5031127;28;20112;-76
2021/05/04 05:27:13;;;;;;;8.40;2.97;;;18.20;99.90;;;;;;5030132;28;20046;-75
2021/05/04 05:29:39;;;;;;;3.38;1.75;;;18.60;99.90;;;;;;5030354;28;20061;-75
2021/05/04 05:32:05;;;;;;;8.15;2.20;;;18.90;99.90;;;;;;5031087;28;20033;-76
2021/05/04 05:34:30;;;;;;;5.63;1.83;;;19.30;99.90;;;;;;5030724;28;20083;-76
2021/05/04 05:36:56;;;;;;;9.05;1.73;;;19.60;99.90;;;;;;5031944;28;20037;-75
2021/05/04 05:39:23;;;;;;;9.18;1.50;;;20.00;99.90;;;;;;5031435;28;20040;-76
2021/05/04 05:41:49;;;;;;;5.72;1.60;;;20.10;99.90;;;;;;5031753;28;20104;-75
2021/05/04 05:44:15;;;;;;;2.55;1.50;;;20.30;99.90;;;;;;5030794;28;20037;-75
2021/05/04 05:46:41;;;;;;;5.32;1.70;;;20.60;99.90;;;;;;5030669;28;20038;-76
2021/05/04 05:49:08;;;;;;;6.45;2.30;;;20.70;99.90;;;;;;5031713;28;20041;-76
2021/05/04 05:51:34;;;;;;;7.22;1.92;;;;;;;;;;5031738;28;20109;-85
2021/05/04 05:53:59;;;;;;;8.05;1.75;;;21.00;99.90;;;;;;5032208;28;20037;-84
2021/05/04 05:56:25;;;;;;;4.93;1.63;;;21.40;99.90;;;;;;5031347;28;20041;-83
2021/05/04 05:58:51;;;;;;;5.00;1.98;;;21.60;99.90;;;;;;5030212;28;20042;-81
2021/05/04 06:01:16;;;;;;;15.45;1.83;;;21.90;99.90;;;;;;5029204;28;20492;-81
2021/05/04 06:03:42;;;;;;;7.43;1.80;;;22.30;99.90;;;;;;5031359;28;20117;-84
2021/05/04 06:06:08;;;;;;;8.43;1.95;;;22.50;99.90;;;;;;5031558;28;20037;-83
2021/05/04 06:08:34;;;;;;;4.85;1.85;;;22.60;99.90;;;;;;5050659;28;20047;-80
2021/05/04 06:11:00;;;;;;;11.63;1.85;;;23.10;99.90;;;;;;5050641;28;20469;-80
2021/05/04 06:13:25;;;;;;;9.88;1.70;;;23.30;99.90;;;;;;5035403;28;20049;-83
2021/05/04 06:15:51;;;;;;;7.07;1.70;;;23.50;99.90;;;;;;5033503;28;20037;-80
2021/05/04 06:18:17;;;;;;;5.50;1.88;;;23.70;99.90;;;;;;5022979;28;20036;-82
2021/05/04 06:20:43;;;;;;;8.80;1.58;;;24.00;99.60;;;;;;5050294;28;20378;-80
2021/05/04 06:23:09;;;;;;;4.90;1.60;;;24.30;99.00;;;;;;5035418;28;20444;-80
2021/05/04 06:25:35;;;;;;;5.50;1.50;;;24.50;97.70;;;;;;5035349;28;20462;-80
2021/05/04 06:28:06;;;;;;;7.85;1.27;;;24.40;97.90;;;;;;5035377;28;20031;-80
2021/05/04 06:30:35;;;;;;;5.20;1.23;;;24.50;97.60;;;;;;5035036;28;20405;-80
2021/05/04 06:33:05;;;;;;;2.45;1.10;;;24.70;97.00;;;;;;5034937;28;20268;-81
2021/05/04 06:35:33;;;;;;;3.60;1.20;;;25.10;96.00;;;;;;5034987;28;20439;-80
2021/05/04 06:37:59;;;;;;;5.30;1.23;;;25.30;95.50;;;;;;5033718;28;20279;-81
2021/05/04 06:40:24;;;;;;;2.45;1.40;;;25.50;94.50;;;;;;5034635;28;20397;-82
2021/05/04 06:42:50;;;;;;;4.70;1.10;;;25.70;93.90;;;;;;5034810;28;20099;-80
2021/05/04 06:45:16;;;;;;;5.97;1.80;;;25.80;93.60;;;;;;5034801;28;20604;-81
2021/05/04 06:47:42;;;;;;;5.95;1.35;;;26.20;93.20;;;;;;5035020;28;20084;-82
2021/05/04 06:50:08;;;;;;;2.95;1.35;;;26.70;93.00;;;;;;5034680;28;20401;-82
2021/05/04 06:52:33;;;;;;;2.45;1.08;;;26.90;92.10;;;;;;5035175;28;20029;-81
2021/05/04 06:54:59;;;;;;;3.90;1.13;;;26.80;91.10;;;;;;5034246;28;20042;-80
2021/05/04 06:57:25;;;;;;;2.97;0.90;;;26.80;91.40;;;;;;5033642;28;20450;-81
2021/05/04 06:59:51;;;;;;;4.13;1.08;;;26.90;90.90;;;;;;5020180;28;20092;-82
2021/05/04 07:02:17;;;;;;;5.55;0.95;;;27.20;90.00;;;;;;5030510;28;20364;-81
2021/05/04 07:04:43;;;;;;;2.85;1.02;;;27.70;89.10;;;;;;5033602;28;20037;-81
2021/05/04 07:07:08;;;;;;;3.45;1.00;;;27.90;85.30;;;;;;5033899;28;20603;-84
2021/05/04 07:09:34;;;;;;;1.90;0.65;;;28.00;85.70;;;;;;5049127;28;20076;-84
2021/05/04 07:12:00;;;;;;;3.00;0.77;;;28.10;83.90;;;;;;5032179;28;20042;-80
2021/05/04 07:14:26;;;;;;;4.90;1.25;;;28.40;83.20;;;;;;5029464;28;20026;-83
2021/05/04 07:16:52;;;;;;;14.13;1.40;;;28.40;83.40;;;;;;5032449;28;20105;-80
2021/05/04 07:19:18;;;;;;;9.90;1.92;;;28.00;86.70;;;;;;5028318;28;20116;-83
2021/05/04 07:21:43;;;;;;;4.72;1.30;;;27.90;88.20;;;;;;5033228;28;20153;-81
2021/05/04 07:24:10;;;;;;;15.57;1.90;;;27.80;87.70;;;;;;5033746;28;20478;-82
2021/05/04 07:26:39;;;;;;;7.30;2.13;;;27.50;87.20;;;;;;5033471;28;20137;-79
2021/05/04 07:29:04;;;;;;;7.32;1.85;;;27.10;88.20;;;;;;5032887;28;20064;-79
2021/05/04 07:31:30;;;;;;;6.47;1.95;;;26.80;88.40;;;;;;5033238;28;20486;-79
2021/05/04 07:33:56;;;;;;;5.10;1.30;;;26.60;88.50;;;;;;5032230;28;21204;-80
2021/05/04 07:36:24;;;;;;;3.30;1.25;;;26.50;86.30;;;;;;5033294;28;20037;-81
2021/05/04 07:38:50;;;;;;;12.57;1.70;;;26.20;87.70;;;;;;5033824;28;20124;-80
2021/05/04 07:41:15;;;;;;;5.45;2.10;;;25.90;89.00;;;;;;5021757;28;20124;-79
2021/05/04 07:43:41;;;;;;;6.38;2.08;;;25.50;90.50;;;;;;5034070;28;20029;-79
2021/05/04 07:46:07;;;;;;;11.52;1.70;;;25.50;90.50;;;;;;5033727;28;20458;-81
2021/05/04 07:48:32;;;;;;;15.80;2.00;;;25.40;89.70;;;;;;5049215;28;20051;-82
2021/05/04 07:50:59;;;;;;;16.60;2.97;;;25.20;90.20;;;;;;5033444;28;20091;-79
2021/05/04 07:53:25;;;;;;;13.88;2.03;;;24.90;90.40;;;;;;5033707;28;20053;-80
2021/05/04 07:55:50;;;;;;;15.40;1.90;;;24.60;90.60;;;;;;5033952;28;20053;-80
2021/05/04 07:58:17;;;;;;;4.80;1.45;;;24.50;91.30;;;;;;5033598;28;20033;-80
2021/05/04 08:00:42;;;;;;;7.05;1.70;;;24.40;91.10;;;;;;5033582;28;20116;-79
2021/05/04 08:03:08;;;;;;;6.63;1.70;;;24.30;90.80;;;;;;5033476;28;20160;-82
2021/05/04 08:05:34;;;;;;;10.88;1.60;;;24.30;91.10;;;;;;5021720;28;20029;-81
2021/05/04 08:08:00;;;;;;;9.05;2.05;;;24.10;90.90;;;;;;5049015;28;20088;-82
2021/05/04 08:10:26;;;;;;;9.68;1.80;;;23.90;92.00;;;;;;5032926;28;20029;-81
2021/05/04 08:12:51;;;;;;;9.75;2.35;;;23.80;91.90;;;;;;5033358;28;20393;-83
2021/05/04 08:15:19;;;;;;;5.03;1.20;;;24.00;91.90;;;;;;5048175;28;20458;-81
2021/05/04 08:17:56;;;;;;;3.55;1.60;;;24.10;91.60;;;;;;5033212;28;20056;-81
2021/05/04 08:20:22;;;;;;;8.45;1.95;;;24.10;91.50;;;;;;5032162;28;20030;-79
2021/05/04 08:22:48;;;;;;;5.38;1.88;;;23.90;91.80;;;;;;5033494;28;20385;-79
2021/05/04 08:25:14;;;;;;;6.90;1.67;;;23.80;92.20;;;;;;5033068;28;20030;-80
2021/05/04 08:27:40;;;;;;;5.10;1.35;;;23.70;91.80;;;;;;5032905;28;20025;-79
2021/05/04 08:30:06;;;;;;;2.80;1.30;;;23.50;92.30;;;;;;5047304;28;20048;-81
2021/05/04 08:32:32;;;;;;;5.82;1.30;;;23.50;93.00;;;;;;5032828;28;20029;-80
2021/05/04 08:34:57;;;;;;;8.10;1.45;;;23.50;92.40;;;;;;5031451;28;20727;-79
2021/05/04 08:37:23;;;;;;;9.45;1.70;;;23.40;92.80;;;;;;5048027;28;20025;-78
2021/05/04 08:39:49;;;;;;;3.55;1.40;;;23.40;93.20;;;;;;5032923;28;20037;-79
2021/05/04 08:42:15;;;;;;;8.05;2.25;;;23.30;92.70;;;;;;5032569;28;20429;-78
2021/05/04 08:44:45;;;;;;;6.50;1.92;;;23.10;92.50;;;;;;5032763;28;20040;-82
2021/05/04 08:47:11;;;;;;;4.63;1.60;;;23.00;93.50;;;;;;5032142;28;20037;-78
2021/05/04 08:49:38;;;;;;;1.73;1.40;;;22.90;93.30;;;;;;5030983;28;20041;-79
2021/05/04 08:52:04;;;;;;;5.13;1.92;;;22.90;93.20;;;;;;5032490;28;20060;-79
2021/05/04 08:54:30;;;;;;;19.88;1.63;;;23.00;93.40;;;;;;5030967;28;20029;-80
2021/05/04 08:56:55;;;;;;;4.43;2.15;;;23.10;93.50;;;;;;5032407;28;20375;-79
2021/05/04 08:59:21;;;;;;;11.60;2.05;;;23.20;93.90;;;;;;5031926;28;20033;-77
2021/05/04 09:01:47;;;;;;;7.75;2.10;;;23.20;94.40;;;;;;5032135;28;20040;-80
2021/05/04 09:04:34;;;;;;;6.05;2.80;;;23.50;94.30;;;;;;5032105;28;20496;-80
2021/05/04 09:07:32;;;;;;;7.78;2.20;;;23.60;94.00;;;;;;5032261;28;20030;-80
2021/05/04 09:10:07;;;;;;;3.53;1.52;;;23.80;93.60;;;;;;5031371;28;20045;-82
2021/05/04 09:12:39;;;;;;;5.75;1.80;;;23.80;93.10;;;;;;5032163;28;20045;-81
2021/05/04 09:18:36;;;;;;;9.55;2.05;;;23.90;93.10;;;;;;5032895;28;20065;-79
2021/05/04 09:21:06;;;;;;;3.90;1.70;;;24.20;94.10;;;;;;5030884;28;20033;-78
2021/05/04 09:23:32;;;;;;;6.40;1.57;;;24.50;93.30;;;;;;5032354;28;20021;-80
2021/05/04 09:25:59;;;;;;;5.68;2.22;;;24.50;93.30;;;;;;5047649;28;20539;-79
2021/05/04 09:28:24;;;;;;;4.82;1.67;;;24.60;92.70;;;;;;5031940;28;20021;-79
2021/05/04 09:30:52;;;;;;;12.20;2.40;;;24.30;93.10;;;;;;5032046;28;20370;-79
2021/05/04 09:33:19;;;;;;;9.90;2.53;;;24.10;93.00;;;;;;5031829;28;20106;-80
2021/05/04 09:35:45;;;;;;;14.38;2.20;;;24.20;93.60;;;;;;5047284;28;20033;-80
2021/05/04 09:38:13;;;;;;;8.38;2.13;;;24.30;93.40;;;;;;5046651;28;20098;-80
2021/05/04 09:40:43;;;;;;;8.70;1.98;;;24.50;93.20;;;;;;5033028;28;20116;-80
2021/05/04 09:43:17;;;;;;;7.20;2.10;;;24.60;93.10;;;;;;5035722;28;20053;-80
2021/05/04 09:45:50;;;;;;;5.40;1.73;;;24.70;92.80;;;;;;5036426;28;20424;-80
2021/05/04 09:48:23;;;;;;;5.07;1.50;;;24.60;92.40;;;;;;5036003;28;20091;-79
2021/05/04 09:50:55;;;;;;;5.30;2.20;;;24.60;92.30;;;;;;5036126;28;20037;-80
2021/05/04 09:53:37;;;;;;;6.53;2.17;;;24.50;92.40;;;;;;5035815;28;20497;-79
2021/05/04 09:56:03;;;;;;;;;;;24.50;91.70;;;;;;5036679;28;20068;-79
2021/05/04 09:58:42;;;;;;;4.68;1.73;;;24.30;92.40;;;;;;5035748;28;19936;-78
2021/05/04 10:01:13;;;;;;;4.50;2.15;;;24.20;92.40;;;;;;5035278;28;20021;-78
2021/05/04 10:03:41;;;;;;;7.72;2.35;;;24.00;92.20;;;;;;5034987;28;20113;-78
2021/05/04 10:06:09;;;;;;;8.52;3.00;;;23.80;92.70;;;;;;5035636;28;20033;-78
2021/05/04 10:08:36;;;;;;;3.72;2.13;;;23.60;93.20;;;;;;5034929;28;20037;-78
2021/05/04 10:11:07;;;;;;;6.60;2.28;;;23.40;93.70;;;;;;5035667;28;20017;-78
2021/05/04 10:13:35;;;;;;;11.77;2.22;;;23.10;93.70;;;;;;5035373;28;20086;-78
2021/05/04 10:16:01;;;;;;;5.65;2.15;;;23.00;94.30;;;;;;5050346;28;20029;-78
2021/05/04 10:18:28;;;;;;;7.85;2.10;;;23.00;94.40;;;;;;5050823;28;20042;-78
2021/05/04 10:20:56;;;;;;;6.78;1.90;;;23.00;94.70;;;;;;5035375;28;20022;-78
2021/05/04 10:23:23;;;;;;;4.80;1.80;;;22.90;94.80;;;;;;5035663;28;20116;-78
2021/05/04 10:26:05;;;;;;;6.45;2.30;;;22.90;94.90;;;;;;5035449;28;20025;-78
2021/05/04 10:28:34;;;;;;;4.70;2.80;;;22.90;95.10;;;;;;5024155;28;20026;-78
2021/05/04 10:31:01;;;;;;;7.75;2.58;;;22.90;95.10;;;;;;5033225;28;20589;-78
2021/05/04 10:33:33;;;;;;;3.88;2.22;;;22.70;95.10;;;;;;5035446;28;20127;-78
2021/05/04 10:36:00;;;;;;;6.90;2.58;;;22.70;95.60;;;;;;5035405;28;20109;-78
2021/05/04 10:38:26;;;;;;;6.20;2.50;;;22.60;96.20;;;;;;5050400;28;20040;-78
2021/05/04 10:41:05;;;;;;;9.85;3.05;;;22.60;96.40;;;;;;5035269;28;20151;-78
2021/05/04 10:43:30;;;;;;;7.75;2.90;;;22.50;96.10;;;;;;5035062;28;20044;-78
2021/05/04 10:45:58;;;;;;;12.02;4.38;;;22.40;96.30;;;;;;5035081;28;20038;-78
2021/05/04 10:48:38;;;;;;;7.28;2.83;;;22.40;96.60;;;;;;5023044;28;20482;-78
2021/05/04 10:51:16;;;;;;;4.05;2.28;;;22.30;96.60;;;;;;5020977;28;20115;-78
2021/05/04 10:53:56;;;;;;;5.05;2.08;;;22.20;96.90;;;;;;5034237;28;20037;-78
2021/05/04 10:56:35;;;;;;;7.15;2.50;;;22.00;96.90;;;;;;5020914;28;20176;-78
2021/05/04 10:59:01;;;;;;;5.40;2.38;;;21.60;97.50;;;;;;5033602;28;20513;-78
2021/05/04 11:01:27;;;;;;;11.90;2.90;;;21.20;98.10;;;;;;5020898;28;20065;-78
2021/05/04 11:03:55;;;;;;;5.78;2.65;;;21.10;98.50;;;;;;5034972;28;20064;-78
2021/05/04 11:06:23;;;;;;;6.47;2.30;;;21.00;99.10;;;;;;5034264;28;20036;-77
2021/05/04 11:08:49;;;;;;;7.90;3.03;;;20.80;99.40;;;;;;5033139;28;20026;-78
2021/05/04 11:11:40;;;;;;;5.22;2.72;;;20.80;99.90;;;;;;5033098;28;20052;-78
2021/05/04 11:14:12;;;;;;;6.95;2.83;;;21.00;99.90;;;;;;5033161;28;20029;-77
2021/05/04 11:16:45;;;;;;;6.03;2.58;;;21.00;99.90;;;;;;5034692;28;20069;-78
2021/05/04 11:19:17;;;;;;;9.15;3.72;;;20.90;99.90;;;;;;5034849;28;20523;-78
2021/05/04 11:21:50;;;;;;;5.00;2.95;;;20.90;99.90;;;;;;5033386;28;20034;-78
2021/05/04 11:24:23;;;;;;;7.47;2.95;;;20.80;99.90;;;;;;5034531;28;20053;-77
2021/05/04 11:26:55;;;;;;;6.25;2.63;;;20.80;99.90;;;;;;5050062;28;20060;-78
2021/05/04 11:29:23;;;;;;;8.23;3.80;;;20.70;99.90;;;;;;5034125;28;20041;-78
2021/05/04 11:31:54;;;;;;;8.38;3.78;;;20.70;99.90;;;;;;5034395;28;20034;-78
2021/05/04 11:34:32;;;;;;;7.45;3.17;;;20.80;99.90;;;;;;5034002;28;20494;-78
2021/05/04 11:36:58;;;;;;;9.32;3.15;;;20.80;99.90;;;;;;5033063;28;20033;-78
2021/05/04 11:39:24;;;;;;;5.18;2.10;;;20.80;99.90;;;;;;5033974;28;20397;-78
2021/05/04 11:41:56;;;;;;;8.52;2.80;;;20.90;99.90;;;;;;5034071;28;20025;-78
2021/05/04 11:44:29;;;;;;;;;;;20.80;99.90;;;;;;5034022;28;20048;-78
2021/05/04 11:46:55;;;;;;;7.18;1.90;;;20.70;99.90;;;;;;5034206;28;19905;-78
2021/05/04 11:49:28;;;;;;;6.95;1.90;;;20.60;99.90;;;;;;5033717;28;20046;-77
2021/05/04 11:52:08;;;;;;;6.85;1.88;;;20.50;99.90;;;;;;5019300;28;20072;-77
2021/05/04 11:54:35;;;;;;;5.10;1.73;;;20.50;99.90;;;;;;5033422;28;20032;-77
2021/05/04 11:57:02;;;;;;;8.68;2.50;;;20.40;99.90;;;;;;5025740;28;20124;-78
2021/05/04 11:59:28;;;;;;;9.57;1.70;;;20.50;99.90;;;;;;5027187;28;20022;-77
2021/05/04 12:01:54;;;;;;;12.57;2.00;;;20.30;99.90;;;;;;5033528;28;20049;-77
2021/05/04 12:04:40;;;;;;;8.07;2.63;;;20.30;99.90;;;;;;5032950;28;20032;-78
2021/05/04 12:07:06;;;;;;;6.68;1.98;;;20.30;99.90;;;;;;5032996;28;20112;-78
2021/05/04 12:09:35;;;;;;;5.60;2.08;;;20.30;99.90;;;;;;5033335;28;20112;-78
2021/05/04 12:12:13;;;;;;;6.45;2.13;;;20.30;99.90;;;;;;5033313;28;20092;-78
2021/05/04 12:15:01;;;;;;;9.90;2.75;;;20.20;99.90;;;;;;5033395;28;20037;-78
2021/05/04 12:17:27;;;;;;;5.13;1.90;;;20.20;99.90;;;;;;5032249;28;20029;-78
2021/05/04 12:20:18;;;;;;;9.95;2.65;;;20.30;99.90;;;;;;5033456;28;20052;-78
2021/05/04 12:22:48;;;;;;;9.13;2.35;;;20.30;99.90;;;;;;5033150;28;20038;-78
2021/05/04 12:25:27;;;;;;;6.22;2.17;;;20.20;99.90;;;;;;5032844;28;20034;-78
2021/05/04 12:27:54;;;;;;;8.13;2.47;;;20.10;99.90;;;;;;5048422;28;20120;-77
2021/05/04 12:30:25;;;;;;;8.05;2.33;;;20.00;99.90;;;;;;5032883;28;20029;-78
2021/05/04 12:32:52;;;;;;;8.55;2.10;;;20.10;99.90;;;;;;5032317;28;20029;-77
2021/05/04 12:35:29;;;;;;;8.20;2.33;;;20.10;99.90;;;;;;5032565;28;20044;-77
2021/05/04 12:38:27;;;;;;;7.05;2.03;;;20.20;99.90;;;;;;5032314;28;20029;-77
2021/05/04 12:41:15;;;;;;;4.53;2.30;;;20.10;99.90;;;;;;5030349;28;20029;-77
2021/05/04 12:43:58;;;;;;;14.00;2.08;;;20.00;99.90;;;;;;5032254;28;20041;-78
2021/05/04 12:46:27;;;;;;;4.72;2.00;;;20.00;99.90;;;;;;5030797;28;20037;-78
2021/05/04 12:48:53;;;;;;;10.60;2.15;;;19.90;99.90;;;;;;5031989;28;20033;-78
2021/05/04 12:51:25;;;;;;;9.07;2.45;;;19.80;99.90;;;;;;5031421;28;20144;-78